createdAt,value
2018-12-09T00:00:33.863Z,5.83
2018-12-09T00:03:02.313Z,5.57
2018-12-09T00:05:30.837Z,5.20
2018-12-09T00:07:59.396Z,5.80
2018-12-09T00:10:28.217Z,4.50
2018-12-09T00:12:56.742Z,4.90
2018-12-09T00:15:25.281Z,4.77
2018-12-09T00:17:54.388Z,4.90
2018-12-09T00:20:23.289Z,4.90
2018-12-09T00:22:52.244Z,5.00
2018-12-09T00:25:21.150Z,4.90
2018-12-09T00:27:54.447Z,4.17
2018-12-09T00:30:23.286Z,3.73
2018-12-09T00:32:51.870Z,4.20
2018-12-09T00:35:20.408Z,3.57
2018-12-09T00:37:49.858Z,4.20
2018-12-09T00:40:18.342Z,3.97
2018-12-09T00:42:46.852Z,3.57
2018-12-09T00:45:15.436Z,4.27
2018-12-09T00:47:43.922Z,4.10
2018-12-09T00:50:13.632Z,4.47
2018-12-09T00:52:42.829Z,4.00
2018-12-09T00:55:11.627Z,4.67
2018-12-09T00:57:40.300Z,4.53
2018-12-09T01:00:13.199Z,4.23
2018-12-09T01:02:42.973Z,4.27
2018-12-09T01:05:11.741Z,4.60
2018-12-09T01:07:40.436Z,4.27
2018-12-09T01:10:09.001Z,4.97
2018-12-09T01:12:38.330Z,4.03
2018-12-09T01:15:07.128Z,4.50
2018-12-09T01:17:36.082Z,4.63
2018-12-09T01:20:07.169Z,3.97
2018-12-09T01:22:36.107Z,4.40
2018-12-09T01:25:05.203Z,4.03
2018-12-09T01:27:36.755Z,5.10
2018-12-09T01:30:06.163Z,5.67
2018-12-09T01:32:36.305Z,4.63
2018-12-09T01:35:06.604Z,4.80
2018-12-09T01:37:35.737Z,4.60
2018-12-09T01:40:05.275Z,4.30
2018-12-09T01:42:33.954Z,5.50
2018-12-09T01:45:02.626Z,4.33
2018-12-09T01:47:31.268Z,4.23
2018-12-09T01:50:00.091Z,4.13
2018-12-09T01:52:28.836Z,5.07
2018-12-09T01:54:57.743Z,4.37
2018-12-09T01:57:26.338Z,4.67
2018-12-09T01:59:55.025Z,3.93
2018-12-09T02:02:23.724Z,4.63
2018-12-09T02:04:52.294Z,4.47
2018-12-09T02:07:20.911Z,4.67
2018-12-09T02:09:49.469Z,4.57
2018-12-09T02:12:18.190Z,4.33
2018-12-09T02:14:46.825Z,4.50
2018-12-09T02:17:15.436Z,4.83
2018-12-09T02:19:44.021Z,4.37
2018-12-09T02:22:12.587Z,4.40
2018-12-09T02:24:41.793Z,3.90
2018-12-09T02:27:10.388Z,3.47
2018-12-09T02:29:39.055Z,4.70
2018-12-09T02:32:08.145Z,4.10
2018-12-09T02:34:36.870Z,4.03
2018-12-09T02:37:05.503Z,3.67
2018-12-09T02:39:34.822Z,4.33
2018-12-09T02:42:03.312Z,3.27
2018-12-09T02:44:31.860Z,3.80
2018-12-09T02:47:01.219Z,4.43
2018-12-09T02:49:30.080Z,3.73
2018-12-09T02:51:59.301Z,3.70
2018-12-09T02:54:27.887Z,4.80
2018-12-09T02:56:56.752Z,4.17
2018-12-09T02:59:25.330Z,2.87
2018-12-09T03:01:53.889Z,3.33
2018-12-09T03:04:22.559Z,2.83
2018-12-09T03:06:51.606Z,3.50
2018-12-09T03:09:20.206Z,3.90
2018-12-09T03:11:48.740Z,3.20
2018-12-09T03:14:17.805Z,3.43
2018-12-09T03:16:46.439Z,3.83
2018-12-09T03:19:14.959Z,3.03
2018-12-09T03:21:43.535Z,4.30
2018-12-09T03:24:12.820Z,3.83
2018-12-09T03:26:41.971Z,4.27
2018-12-09T03:29:10.561Z,3.63
2018-12-09T03:31:39.114Z,3.73
2018-12-09T03:34:08.107Z,4.07
2018-12-09T03:36:36.710Z,3.80
2018-12-09T03:39:07.185Z,3.93
2018-12-09T03:41:35.799Z,3.93
2018-12-09T03:44:04.852Z,3.70
2018-12-09T03:46:33.372Z,3.87
2018-12-09T03:49:02.449Z,3.73
2018-12-09T03:51:32.144Z,3.20
2018-12-09T03:54:00.719Z,4.00
2018-12-09T03:56:29.283Z,3.70
2018-12-09T03:58:57.824Z,3.27
2018-12-09T04:01:26.791Z,3.63
2018-12-09T04:03:55.759Z,3.40
2018-12-09T04:06:24.267Z,2.93
2018-12-09T04:08:53.064Z,4.13
2018-12-09T04:11:21.853Z,3.53
2018-12-09T04:13:51.109Z,3.47
2018-12-09T04:16:20.172Z,3.93
2018-12-09T04:18:48.768Z,2.87
2018-12-09T04:21:17.331Z,3.87
2018-12-09T04:23:46.534Z,3.30
2018-12-09T04:26:15.561Z,3.47
2018-12-09T04:28:44.094Z,4.60
2018-12-09T04:31:12.667Z,4.40
2018-12-09T04:33:41.232Z,3.47
2018-12-09T04:36:09.837Z,3.70
2018-12-09T04:38:39.072Z,3.93
2018-12-09T04:41:07.718Z,3.50
2018-12-09T04:43:36.782Z,4.03
2018-12-09T04:46:05.744Z,3.57
2018-12-09T04:48:35.213Z,4.07
2018-12-09T04:51:03.848Z,4.93
2018-12-09T04:53:32.797Z,3.50
2018-12-09T04:56:01.742Z,4.20
2018-12-09T04:58:31.349Z,4.50
2018-12-09T05:01:00.279Z,3.87
2018-12-09T05:03:28.830Z,4.17
2018-12-09T05:05:57.682Z,3.70
2018-12-09T05:08:26.966Z,4.17
2018-12-09T05:10:55.519Z,5.37
2018-12-09T05:13:24.408Z,3.77
2018-12-09T05:15:53.014Z,4.10
2018-12-09T05:18:21.553Z,4.07
2018-12-09T05:20:50.205Z,4.13
2018-12-09T05:23:18.761Z,4.17
2018-12-09T05:25:47.246Z,3.83
2018-12-09T05:28:15.932Z,4.73
2018-12-09T05:30:44.459Z,4.00
2018-12-09T05:33:13.365Z,4.03
2018-12-09T05:35:42.491Z,4.37
2018-12-09T05:38:11.022Z,3.80
2018-12-09T05:40:39.790Z,4.47
2018-12-09T05:43:08.354Z,4.07
2018-12-09T05:45:37.045Z,4.93
2018-12-09T05:48:05.712Z,4.50
2018-12-09T05:50:34.279Z,4.90
2018-12-09T05:53:02.819Z,4.53
2018-12-09T05:55:31.935Z,3.73
2018-12-09T05:58:01.547Z,4.60
2018-12-09T06:00:30.100Z,4.40
2018-12-09T06:02:58.613Z,4.60
2018-12-09T06:05:27.222Z,4.20
2018-12-09T06:07:55.747Z,4.70
2018-12-09T06:10:24.297Z,3.70
2018-12-09T06:12:52.924Z,3.90
2018-12-09T06:15:21.471Z,4.27
2018-12-09T06:17:50.342Z,3.83
2018-12-09T06:20:18.899Z,3.77
2018-12-09T06:22:47.558Z,3.77
2018-12-09T06:25:16.154Z,3.43
2018-12-09T06:27:47.022Z,3.80
2018-12-09T06:30:16.035Z,3.63
2018-12-09T06:32:44.596Z,3.53
2018-12-09T06:35:13.268Z,3.83
2018-12-09T06:37:42.090Z,3.67
2018-12-09T06:40:10.583Z,4.67
2018-12-09T06:42:39.235Z,4.43
2018-12-09T06:45:08.123Z,3.93
2018-12-09T06:47:36.707Z,4.13
2018-12-09T06:50:08.788Z,3.83
2018-12-09T06:52:37.813Z,3.53
2018-12-09T06:55:08.279Z,4.37
2018-12-09T06:57:37.011Z,4.27
2018-12-09T07:00:07.746Z,4.07
2018-12-09T07:02:36.267Z,5.20
2018-12-09T07:05:06.816Z,4.70
2018-12-09T07:07:35.396Z,4.27
2018-12-09T07:10:04.917Z,4.00
2018-12-09T07:12:33.716Z,4.80
2018-12-09T07:15:02.355Z,4.30
2018-12-09T07:17:32.186Z,3.77
2018-12-09T07:20:00.714Z,3.57
2018-12-09T07:22:29.231Z,4.47
2018-12-09T07:24:57.746Z,4.10
2018-12-09T07:27:26.242Z,3.60
2018-12-09T07:30:01.862Z,4.13
2018-12-09T07:32:25.770Z,4.13
2018-12-09T07:34:54.277Z,4.70
2018-12-09T07:37:22.823Z,3.70
2018-12-09T07:39:51.580Z,4.33
2018-12-09T07:42:20.106Z,4.10
2018-12-09T07:44:49.557Z,3.40
2018-12-09T07:47:18.744Z,4.60
2018-12-09T07:49:47.617Z,4.23
2018-12-09T07:52:16.777Z,4.60
2018-12-09T07:54:45.484Z,4.20
2018-12-09T07:57:14.489Z,4.57
2018-12-09T07:59:43.008Z,4.67
2018-12-09T08:02:11.465Z,4.93
2018-12-09T08:04:40.488Z,3.40
2018-12-09T08:07:09.295Z,4.17
2018-12-09T08:09:38.020Z,4.43
2018-12-09T08:12:06.614Z,4.30
2018-12-09T08:14:36.268Z,4.00
2018-12-09T08:17:04.786Z,4.70
2018-12-09T08:19:33.326Z,4.17
2018-12-09T08:22:02.501Z,3.93
2018-12-09T08:24:32.647Z,4.80
2018-12-09T08:27:02.098Z,4.60
2018-12-09T08:29:30.682Z,4.60
2018-12-09T08:31:59.337Z,4.27
2018-12-09T08:34:28.116Z,5.33
2018-12-09T08:36:56.762Z,5.00
2018-12-09T08:39:25.808Z,4.57
2018-12-09T08:41:54.763Z,4.80
2018-12-09T08:44:23.885Z,4.67
2018-12-09T08:46:54.863Z,6.00
2018-12-09T08:49:23.888Z,4.50
2018-12-09T08:51:53.339Z,4.50
2018-12-09T08:54:21.804Z,4.17
2018-12-09T08:56:50.734Z,5.03
2018-12-09T08:59:19.380Z,4.87
2018-12-09T09:01:48.973Z,4.70
2018-12-09T09:04:18.424Z,4.17
2018-12-09T09:06:48.078Z,4.47
2018-12-09T09:09:16.571Z,4.40
2018-12-09T09:11:45.748Z,4.63
2018-12-09T09:14:14.649Z,5.30
2018-12-09T09:16:43.421Z,5.27
2018-12-09T09:19:12.075Z,4.53
2018-12-09T09:21:40.622Z,4.40
2018-12-09T09:24:09.249Z,4.23
2018-12-09T09:26:38.184Z,2.67
2018-12-09T09:29:06.821Z,2.00
2018-12-09T09:31:35.917Z,1.90
2018-12-09T09:34:05.111Z,1.87
2018-12-09T09:36:34.930Z,3.13
2018-12-09T09:39:04.614Z,2.60
2018-12-09T09:41:33.156Z,3.80
2018-12-09T09:44:01.709Z,4.83
2018-12-09T09:46:30.270Z,5.10
2018-12-09T09:48:59.810Z,5.03
2018-12-09T09:51:28.271Z,4.27
2018-12-09T09:53:57.499Z,4.67
2018-12-09T09:56:26.795Z,5.00
2018-12-09T09:58:56.411Z,5.13
2018-12-09T10:01:25.598Z,5.03
2018-12-09T10:03:57.312Z,4.13
2018-12-09T10:06:26.172Z,5.90
2018-12-09T10:08:54.866Z,4.43
2018-12-09T10:11:23.425Z,4.70
2018-12-09T10:13:52.351Z,4.13
2018-12-09T10:16:22.847Z,3.67
2018-12-09T10:18:52.537Z,3.60
2018-12-09T10:21:22.154Z,3.70
2018-12-09T10:23:51.768Z,3.33
2018-12-09T10:26:20.912Z,2.77
2018-12-09T10:28:49.797Z,3.93
2018-12-09T10:31:18.427Z,4.17
2018-12-09T10:33:49.548Z,2.97
2018-12-09T10:36:18.992Z,2.40
2018-12-09T10:38:48.814Z,2.20
2018-12-09T10:41:18.491Z,2.33
2018-12-09T10:43:47.326Z,2.93
2018-12-09T10:46:16.164Z,2.70
2018-12-09T10:48:48.043Z,3.93
2018-12-09T10:51:17.078Z,2.77
2018-12-09T10:53:45.973Z,2.30
2018-12-09T10:56:22.472Z,2.20
2018-12-09T10:58:51.111Z,2.63
2018-12-09T11:01:27.981Z,2.50
2018-12-09T11:03:57.412Z,2.27
2018-12-09T11:06:28.112Z,2.23
2018-12-09T11:08:57.789Z,2.43
2018-12-09T11:11:27.411Z,1.93
2018-12-09T11:13:58.274Z,2.53
2018-12-09T11:16:27.495Z,2.40
2018-12-09T11:18:56.713Z,2.43
2018-12-09T11:21:30.507Z,2.20
2018-12-09T11:23:56.043Z,2.17
2018-12-09T11:26:24.812Z,2.50
2018-12-09T11:28:54.230Z,2.13
2018-12-09T11:31:22.883Z,3.00
2018-12-09T11:33:51.607Z,2.33
2018-12-09T11:36:20.518Z,2.73
2018-12-09T11:38:49.948Z,2.20
2018-12-09T11:41:19.656Z,1.93
2018-12-09T11:43:48.584Z,1.90
2018-12-09T11:46:17.191Z,2.27
2018-12-09T11:48:46.699Z,1.97
2018-12-09T11:51:16.111Z,2.10
2018-12-09T11:53:44.769Z,1.90
2018-12-09T11:56:13.785Z,1.53
2018-12-09T11:58:43.039Z,2.20
2018-12-09T12:01:11.820Z,1.97
2018-12-09T12:03:40.879Z,2.73
2018-12-09T12:06:09.464Z,2.00
2018-12-09T12:08:38.068Z,1.93
2018-12-09T12:11:06.735Z,1.97
2018-12-09T12:13:35.351Z,1.83
2018-12-09T12:16:04.830Z,1.57
2018-12-09T12:18:34.881Z,1.80
2018-12-09T12:21:03.686Z,1.57
2018-12-09T12:23:32.364Z,1.80
2018-12-09T12:26:02.020Z,1.83
2018-12-09T12:28:32.997Z,1.83
2018-12-09T12:31:01.838Z,2.07
2018-12-09T12:33:31.140Z,1.90
2018-12-09T12:36:00.133Z,1.53
2018-12-09T12:38:29.111Z,2.33
2018-12-09T12:40:57.801Z,2.23
2018-12-09T12:43:26.901Z,1.93
2018-12-09T12:45:59.945Z,1.70
2018-12-09T12:48:28.858Z,2.03
2018-12-09T12:50:58.396Z,2.03
2018-12-09T12:53:27.547Z,2.07
2018-12-09T12:55:56.248Z,2.30
2018-12-09T12:58:25.181Z,2.00
2018-12-09T13:00:53.835Z,2.03
2018-12-09T13:03:22.547Z,2.13
2018-12-09T13:05:51.251Z,2.80
2018-12-09T13:08:20.174Z,2.87
2018-12-09T13:10:49.535Z,2.80
2018-12-09T13:13:18.351Z,2.33
2018-12-09T13:15:47.919Z,2.70
2018-12-09T13:18:16.496Z,2.50
2018-12-09T13:20:45.223Z,2.70
2018-12-09T13:23:14.073Z,2.80
2018-12-09T13:25:43.088Z,2.03
2018-12-09T13:28:11.987Z,1.93
2018-12-09T13:30:40.756Z,2.20
2018-12-09T13:33:09.546Z,1.90
2018-12-09T13:35:38.157Z,1.63
2018-12-09T13:38:07.317Z,2.47
2018-12-09T13:40:35.871Z,2.40
2018-12-09T13:43:04.519Z,1.97
2018-12-09T13:45:33.165Z,1.93
2018-12-09T13:48:01.992Z,1.70
2018-12-09T13:50:32.123Z,1.80
2018-12-09T13:53:06.287Z,1.70
2018-12-09T13:55:37.390Z,1.67
2018-12-09T14:00:56.599Z,1.47
2018-12-09T14:03:31.723Z,1.50
2018-12-09T14:20:28.020Z,2.80
2018-12-09T14:25:43.269Z,1.63
2018-12-09T14:28:11.978Z,1.40
2018-12-09T14:30:45.960Z,1.97
2018-12-09T14:33:15.723Z,1.53
2018-12-09T14:35:45.148Z,1.50
2018-12-09T14:38:14.219Z,1.80
2018-12-09T14:40:43.527Z,1.60
2018-12-09T14:43:12.480Z,1.70
2018-12-09T14:45:48.793Z,1.50
2018-12-09T14:48:12.265Z,2.00
2018-12-09T14:50:41.107Z,2.03
2018-12-09T14:53:10.644Z,2.03
2018-12-09T14:55:39.471Z,1.90
2018-12-09T14:58:08.173Z,1.40
2018-12-09T15:00:37.269Z,1.90
2018-12-09T15:03:06.096Z,4.80
2018-12-09T15:05:34.692Z,1.90
2018-12-09T15:08:03.548Z,2.60
2018-12-09T15:10:32.667Z,3.17
2018-12-09T15:13:02.196Z,2.70
2018-12-09T15:15:30.980Z,3.00
2018-12-09T15:18:01.914Z,2.63
2018-12-09T15:20:31.415Z,2.80
2018-12-09T15:23:00.105Z,3.00
2018-12-09T15:25:28.750Z,2.53
2018-12-09T15:27:58.713Z,2.53
2018-12-09T15:30:27.243Z,2.20
2018-12-09T15:32:56.128Z,2.00
2018-12-09T15:35:24.945Z,2.40
2018-12-09T15:37:53.560Z,1.70
2018-12-09T15:40:22.212Z,2.20
2018-12-09T15:42:51.130Z,1.73
2018-12-09T15:45:19.865Z,2.00
2018-12-09T15:47:48.492Z,1.80
2018-12-09T15:50:17.155Z,2.10
2018-12-09T15:52:45.802Z,2.30
2018-12-09T15:55:15.431Z,1.80
2018-12-09T15:57:44.044Z,2.30
2018-12-09T16:00:12.941Z,2.47
2018-12-09T16:02:41.720Z,2.10
2018-12-09T16:05:10.564Z,2.20
2018-12-09T16:07:39.406Z,2.20
2018-12-09T16:10:11.744Z,2.70
2018-12-09T16:12:40.852Z,2.20
2018-12-09T16:15:09.610Z,11.47
2018-12-09T16:17:38.188Z,2.63
2018-12-09T16:20:09.387Z,3.37
2018-12-09T16:22:38.479Z,3.93
2018-12-09T16:25:07.378Z,10.07
2018-12-09T16:27:36.531Z,3.63
2018-12-09T16:30:06.738Z,8.70
2018-12-09T16:32:36.546Z,3.30
2018-12-09T16:35:07.180Z,3.37
2018-12-09T16:37:38.512Z,3.20
2018-12-09T16:40:08.047Z,2.93
2018-12-09T16:42:36.768Z,2.90
2018-12-09T16:45:06.295Z,2.40
2018-12-09T16:47:34.837Z,2.33
2018-12-09T16:50:04.473Z,3.10
2018-12-09T16:52:33.200Z,2.93
2018-12-09T16:55:02.053Z,6.20
2018-12-09T16:57:31.046Z,3.73
2018-12-09T17:00:00.090Z,5.77
2018-12-09T17:02:28.942Z,3.07
2018-12-09T17:04:58.700Z,2.80
2018-12-09T17:07:28.483Z,3.03
2018-12-09T17:09:58.201Z,4.17
2018-12-09T17:12:26.795Z,4.13
2018-12-09T17:14:55.769Z,2.50
2018-12-09T17:17:25.049Z,3.13
2018-12-09T17:19:54.507Z,3.03
2018-12-09T17:22:23.092Z,5.83
2018-12-09T17:24:51.875Z,2.53
2018-12-09T17:27:23.376Z,6.10
2018-12-09T17:30:16.322Z,7.03
2018-12-09T17:32:52.243Z,7.00
2018-12-09T17:47:04.635Z,14.93
2018-12-09T17:52:33.202Z,2.70
2018-12-09T17:55:21.310Z,3.40
2018-12-09T17:57:57.737Z,3.03
2018-12-09T18:00:34.692Z,2.67
2018-12-09T18:03:17.318Z,5.60
2018-12-09T18:05:55.042Z,5.93
2018-12-09T18:08:29.702Z,5.03
2018-12-09T18:11:05.576Z,3.73
2018-12-09T18:13:34.578Z,3.30
2018-12-09T18:16:05.544Z,2.33
2018-12-09T18:18:36.303Z,2.30
2018-12-09T18:21:05.760Z,2.00
2018-12-09T18:23:36.008Z,1.87
2018-12-09T18:26:05.263Z,2.10
2018-12-09T18:28:33.967Z,2.27
2018-12-09T18:31:03.524Z,2.17
2018-12-09T18:33:32.130Z,2.40
2018-12-09T18:36:01.449Z,2.60
2018-12-09T18:38:30.069Z,2.30
2018-12-09T18:40:59.292Z,3.50
2018-12-09T18:43:28.139Z,3.07
2018-12-09T18:45:56.734Z,4.20
2018-12-09T18:48:25.395Z,3.10
2018-12-09T18:50:53.958Z,2.97
2018-12-09T18:53:23.376Z,2.30
2018-12-09T18:55:53.039Z,2.67
2018-12-09T18:58:22.500Z,2.87
2018-12-09T19:00:51.204Z,3.00
2018-12-09T19:03:20.308Z,3.30
2018-12-09T19:05:49.598Z,4.10
2018-12-09T19:08:18.963Z,3.37
2018-12-09T19:10:48.411Z,3.00
2018-12-09T19:13:17.492Z,2.43
2018-12-09T19:15:46.996Z,2.63
2018-12-09T19:18:15.974Z,2.47
2018-12-09T19:20:44.893Z,2.30
2018-12-09T19:23:13.579Z,2.00
2018-12-09T19:25:42.350Z,2.40
2018-12-09T19:28:11.753Z,2.27
2018-12-09T19:30:47.998Z,2.07
2018-12-09T19:33:12.492Z,2.30
2018-12-09T19:35:42.404Z,2.73
2018-12-09T19:38:11.112Z,2.13
2018-12-09T19:40:40.064Z,4.27
2018-12-09T19:43:09.354Z,2.60
2018-12-09T19:45:38.337Z,2.10
2018-12-09T19:48:06.914Z,2.93
2018-12-09T19:50:35.799Z,2.90
2018-12-09T19:53:04.524Z,2.60
2018-12-09T19:55:33.481Z,2.27
2018-12-09T19:58:02.191Z,2.00
2018-12-09T20:00:30.757Z,2.10
2018-12-09T20:02:59.699Z,1.70
2018-12-09T20:05:28.304Z,2.40
2018-12-09T20:07:56.898Z,1.70
2018-12-09T20:10:25.476Z,2.07
2018-12-09T20:12:54.155Z,2.40
2018-12-09T20:15:22.855Z,2.30
2018-12-09T20:17:51.540Z,2.77
2018-12-09T20:20:20.155Z,2.10
2018-12-09T20:22:49.895Z,2.37
2018-12-09T20:25:19.141Z,2.40
2018-12-09T20:27:48.503Z,2.23
2018-12-09T20:30:17.196Z,2.10
2018-12-09T20:32:46.677Z,1.90
2018-12-09T20:35:15.359Z,1.90
2018-12-09T20:37:43.991Z,2.47
2018-12-09T20:40:13.205Z,2.77
2018-12-09T20:42:48.131Z,1.67
2018-12-09T20:45:13.942Z,2.53
2018-12-09T20:47:42.685Z,2.20
2018-12-09T20:50:11.776Z,2.37
2018-12-09T20:52:40.346Z,2.37
2018-12-09T20:55:09.037Z,1.93
2018-12-09T20:57:37.621Z,2.50
2018-12-09T21:00:07.032Z,2.37
2018-12-09T21:02:35.979Z,2.47
2018-12-09T21:05:04.997Z,2.30
2018-12-09T21:07:33.688Z,2.10
2018-12-09T21:10:02.367Z,2.37
2018-12-09T21:12:32.097Z,2.10
2018-12-09T21:15:00.735Z,2.30
2018-12-09T21:17:29.756Z,2.10
2018-12-09T21:19:58.515Z,1.83
2018-12-09T21:22:27.183Z,2.10
2018-12-09T21:24:56.640Z,2.23
2018-12-09T21:27:25.611Z,2.47
2018-12-09T21:29:54.309Z,2.20
2018-12-09T21:32:22.882Z,2.60
2018-12-09T21:34:51.887Z,2.20
2018-12-09T21:37:20.498Z,2.00
2018-12-09T21:39:49.712Z,2.67
2018-12-09T21:42:18.672Z,2.50
2018-12-09T21:44:47.250Z,2.40
2018-12-09T21:47:16.145Z,2.07
2018-12-09T21:49:44.748Z,2.17
2018-12-09T21:52:13.958Z,2.30
2018-12-09T21:54:42.599Z,2.17
2018-12-09T21:57:12.314Z,2.00
2018-12-09T21:59:41.884Z,2.10
2018-12-09T22:02:10.953Z,2.33
2018-12-09T22:04:40.056Z,2.17
2018-12-09T22:07:09.417Z,2.20
2018-12-09T22:09:37.990Z,2.40
2018-12-09T22:12:07.058Z,2.30
2018-12-09T22:14:35.635Z,2.53
2018-12-09T22:17:04.725Z,1.90
2018-12-09T22:19:33.377Z,2.40
2018-12-09T22:22:01.979Z,2.23
2018-12-09T22:24:30.535Z,2.07
2018-12-09T22:26:59.219Z,2.10
2018-12-09T22:29:27.725Z,2.43
2018-12-09T22:31:56.273Z,2.33
2018-12-09T22:34:24.818Z,2.70
2018-12-09T22:36:53.340Z,2.53
2018-12-09T22:39:21.924Z,2.53
2018-12-09T22:41:56.749Z,2.40
2018-12-09T22:44:25.345Z,2.30
2018-12-09T22:46:54.038Z,2.63
2018-12-09T22:49:22.598Z,1.83
2018-12-09T22:51:51.143Z,2.90
2018-12-09T22:54:19.737Z,2.83
2018-12-09T22:56:48.336Z,2.40
2018-12-09T22:59:17.408Z,2.60
2018-12-09T23:01:51.238Z,2.80
2018-12-09T23:04:19.792Z,2.77
2018-12-09T23:06:48.393Z,2.57
2018-12-09T23:09:17.048Z,2.83
2018-12-09T23:11:46.029Z,2.30
2018-12-09T23:14:14.924Z,2.93
2018-12-09T23:16:44.158Z,2.93
2018-12-09T23:19:12.686Z,2.20
2018-12-09T23:21:41.609Z,2.53
2018-12-09T23:24:10.192Z,2.80
2018-12-09T23:26:39.118Z,3.17
2018-12-09T23:29:07.643Z,2.60
2018-12-09T23:31:36.538Z,2.63
2018-12-09T23:34:05.139Z,3.23
2018-12-09T23:36:33.635Z,2.60
2018-12-09T23:39:02.461Z,2.57
2018-12-09T23:41:31.323Z,2.40
2018-12-09T23:44:00.002Z,2.53
2018-12-09T23:46:28.900Z,2.30
2018-12-09T23:48:57.483Z,3.00
2018-12-09T23:51:26.386Z,3.00
2018-12-09T23:53:54.949Z,2.70
2018-12-09T23:56:23.488Z,3.10
2018-12-09T23:58:52.940Z,2.57
